Time,TemperatureF,DewpointF,PressureIn,WindDirection,WindDirectionDegrees,WindSpeedMPH,WindSpeedGustMPH,Humidity,HourlyPrecipIn,Conditions,Clouds,dailyrainin,SolarRadiationWatts/m^2,SoftwareType,DateUTC
2013-03-22 14:44:00,67.9,31.7,30.08,WSW,242,2.0,10.0,26,0.00,,,0.00,765,Wunderground v.1.15,2013-03-22 21:44:00,
2013-03-22 14:48:00,67.9,33.6,30.08,West,277,3.0,10.0,28,0.00,,,0.00,758,Wunderground v.1.15,2013-03-22 21:48:00,
2013-03-22 14:54:00,68.5,34.1,30.08,South,176,2.0,10.0,28,0.00,,,0.00,747,Wunderground v.1.15,2013-03-22 21:54:00,
2013-03-22 14:58:00,69.0,32.7,30.07,West,262,2.0,10.0,26,0.00,,,0.00,744,Wunderground v.1.15,2013-03-22 21:58:00,
2013-03-22 15:01:00,69.4,33.0,30.07,WNW,298,2.0,10.0,26,0.00,,,0.00,737,Wunderground v.1.15,2013-03-22 22:01:00,
2013-03-22 15:08:00,69.7,32.3,30.07,SW,231,3.0,10.0,25,0.00,,,0.00,728,Wunderground v.1.15,2013-03-22 22:08:00,
2013-03-22 15:14:00,69.1,32.7,30.07,SSE,155,2.0,10.0,26,0.00,,,0.00,710,Wunderground v.1.15,2013-03-22 22:14:00,
2013-03-22 15:20:00,69.0,31.7,30.07,WNW,292,3.0,10.0,25,0.00,,,0.00,701,Wunderground v.1.15,2013-03-22 22:20:00,
2013-03-22 15:25:00,69.2,31.9,30.06,NW,311,4.0,10.0,25,0.00,,,0.00,691,Wunderground v.1.15,2013-03-22 22:25:00,
2013-03-22 15:32:00,69.9,31.4,30.07,WSW,243,3.0,10.0,24,0.00,,,0.00,680,Wunderground v.1.15,2013-03-22 22:32:00,
2013-03-22 15:38:00,69.9,31.4,30.06,NW,306,2.0,10.0,24,0.00,,,0.00,664,Wunderground v.1.15,2013-03-22 22:38:00,
2013-03-22 15:43:00,69.7,31.3,30.06,WNW,297,3.0,10.0,24,0.00,,,0.00,649,Wunderground v.1.15,2013-03-22 22:43:00,
2013-03-22 15:50:00,70.0,34.5,30.06,NW,304,3.0,10.0,27,0.00,,,0.00,633,Wunderground v.1.15,2013-03-22 22:50:00,
2013-03-22 15:56:00,69.7,36.9,30.06,WSW,248,4.0,10.0,30,0.00,,,0.00,617,Wunderground v.1.15,2013-03-22 22:56:00,
2013-03-22 16:01:00,69.2,37.3,30.06,WSW,238,4.0,9.0,31,0.00,,,0.00,605,Wunderground v.1.15,2013-03-22 23:01:00,
2013-03-22 16:07:00,68.6,37.5,30.06,SW,218,4.0,9.0,32,0.00,,,0.00,591,Wunderground v.1.15,2013-03-22 23:07:00,
2013-03-22 16:13:00,68.2,36.4,30.06,SW,233,4.0,9.0,31,0.00,,,0.00,575,Wunderground v.1.15,2013-03-22 23:13:00,
2013-03-22 16:19:00,68.3,36.5,30.05,SW,217,3.0,3.0,31,0.00,,,0.00,555,Wunderground v.1.15,2013-03-22 23:19:00,
2013-03-22 16:26:00,68.6,36.7,30.06,SW,226,3.0,9.0,31,0.00,,,0.00,538,Wunderground v.1.15,2013-03-22 23:26:00,
2013-03-22 16:31:00,68.9,38.6,30.05,South,186,2.0,9.0,33,0.00,,,0.00,519,Wunderground v.1.15,2013-03-22 23:31:00,
2013-03-22 16:37:00,68.9,37.8,30.05,SW,232,2.0,9.0,32,0.00,,,0.00,501,Wunderground v.1.15,2013-03-22 23:37:00,
2013-03-22 16:44:00,68.3,37.3,30.05,SSW,203,4.0,9.0,32,0.00,,,0.00,483,Wunderground v.1.15,2013-03-22 23:44:00,
2013-03-22 16:49:00,67.6,38.2,30.05,WSW,252,5.0,5.0,34,0.00,,,0.00,464,Wunderground v.1.15,2013-03-22 23:49:00,
2013-03-22 16:55:00,67.4,38.0,30.05,West,275,4.0,9.0,34,0.00,,,0.00,445,Wunderground v.1.15,2013-03-22 23:55:00,
2013-03-22 17:02:00,67.1,38.5,30.05,WSW,246,4.0,14.0,35,0.00,,,0.00,427,Wunderground v.1.15,2013-03-23 00:02:00,
2013-03-22 17:08:00,67.0,37.7,30.05,SW,235,3.0,14.0,34,0.00,,,0.00,406,Wunderground v.1.15,2013-03-23 00:08:00,
2013-03-22 17:13:00,67.2,39.3,30.05,WSW,238,2.0,14.0,36,0.00,,,0.00,390,Wunderground v.1.15,2013-03-23 00:13:00,
2013-03-22 17:20:00,67.2,38.6,30.05,SW,229,2.0,14.0,35,0.00,,,0.00,367,Wunderground v.1.15,2013-03-23 00:20:00,
2013-03-22 17:26:00,67.1,38.5,30.05,West,259,3.0,14.0,35,0.00,,,0.00,350,Wunderground v.1.15,2013-03-23 00:26:00,
2013-03-22 17:32:00,66.5,38.0,30.05,WSW,248,4.0,14.0,35,0.00,,,0.00,329,Wunderground v.1.15,2013-03-23 00:32:00,
2013-03-22 17:37:00,65.9,38.2,30.05,SSE,167,4.0,14.0,36,0.00,,,0.00,308,Wunderground v.1.15,2013-03-23 00:37:00,
2013-03-22 17:44:00,65.8,37.4,30.05,West,269,1.0,14.0,35,0.00,,,0.00,288,Wunderground v.1.15,2013-03-23 00:44:00,
2013-03-22 17:49:00,65.9,36.7,30.05,North,355,1.0,1.0,34,0.00,,,0.00,265,Wunderground v.1.15,2013-03-23 00:49:00,
2013-03-22 17:55:00,66.2,36.2,30.05,West,270,2.0,14.0,33,0.00,,,0.00,243,Wunderground v.1.15,2013-03-23 00:55:00,
2013-03-22 18:02:00,66.5,36.5,30.05,NW,324,1.0,12.0,33,0.00,,,0.00,218,Wunderground v.1.15,2013-03-23 01:02:00,
2013-03-22 18:08:00,66.6,36.6,30.05,WNW,298,1.0,12.0,33,0.00,,,0.00,193,Wunderground v.1.15,2013-03-23 01:08:00,
2013-03-22 18:14:00,66.5,37.2,30.05,SW,218,0.0,12.0,34,0.00,,,0.00,167,Wunderground v.1.15,2013-03-23 01:14:00,
2013-03-22 18:20:00,66.4,37.9,30.05,SW,218,0.0,12.0,35,0.00,,,0.00,144,Wunderground v.1.15,2013-03-23 01:20:00,
2013-03-22 18:25:00,66.3,38.5,30.05,SW,218,0.0,12.0,36,0.00,,,0.00,121,Wunderground v.1.15,2013-03-23 01:25:00,
2013-03-22 18:32:00,65.8,38.1,30.06,SE,140,1.0,12.0,36,0.00,,,0.00,98,Wunderground v.1.15,2013-03-23 01:32:00,
2013-03-22 18:37:00,65.4,39.1,30.06,SE,140,1.0,12.0,38,0.00,,,0.00,79,Wunderground v.1.15,2013-03-23 01:37:00,
2013-03-22 18:44:00,64.9,38.7,30.06,SE,140,0.0,12.0,38,0.00,,,0.00,62,Wunderground v.1.15,2013-03-23 01:44:00,
2013-03-22 18:50:00,64.5,39.0,30.06,SE,140,0.0,12.0,39,0.00,,,0.00,35,Wunderground v.1.15,2013-03-23 01:50:00,
2013-03-22 18:56:00,64.2,38.7,30.05,SE,140,0.0,12.0,39,0.00,,,0.00,28,Wunderground v.1.15,2013-03-23 01:56:00,
2013-03-22 19:02:00,63.7,39.5,30.05,SE,140,0.0,4.0,41,0.00,,,0.00,23,Wunderground v.1.15,2013-03-23 02:02:00,
2013-03-22 19:08:00,63.1,39.6,30.06,SE,140,0.0,4.0,42,0.00,,,0.00,19,Wunderground v.1.15,2013-03-23 02:08:00,
2013-03-22 19:14:00,62.5,39.7,30.06,SE,140,0.0,4.0,43,0.00,,,0.00,12,Wunderground v.1.15,2013-03-23 02:14:00,
2013-03-22 19:19:00,62.0,39.8,30.06,SE,140,0.0,4.0,44,0.00,,,0.00,9,Wunderground v.1.15,2013-03-23 02:19:00,
2013-03-22 19:28:00,61.3,39.8,30.06,SE,140,0.0,4.0,45,0.00,,,0.00,0,Wunderground v.1.15,2013-03-23 02:28:00,
2013-03-22 19:34:00,60.8,40.4,30.06,SE,140,0.0,4.0,47,0.00,,,0.00,0,Wunderground v.1.15,2013-03-23 02:34:00,
2013-03-22 19:40:00,60.1,40.3,30.06,SE,140,0.0,4.0,48,0.00,,,0.00,0,Wunderground v.1.15,2013-03-23 02:40:00,
2013-03-22 19:46:00,59.3,40.7,30.06,SE,140,0.0,4.0,50,0.00,,,0.00,0,Wunderground v.1.15,2013-03-23 02:46:00,
2013-03-22 19:52:00,58.6,41.0,30.07,SE,140,0.0,4.0,52,0.00,,,0.00,0,Wunderground v.1.15,2013-03-23 02:52:00,
2013-03-22 19:58:00,57.9,41.3,30.07,SE,140,0.0,4.0,54,0.00,,,0.00,0,Wunderground v.1.15,2013-03-23 02:58:00,
2013-03-22 20:04:00,57.3,40.3,30.07,SE,140,0.0,2.0,53,0.00,,,0.00,0,Wunderground v.1.15,2013-03-23 03:04:00,
2013-03-22 20:10:00,56.8,39.4,30.07,SE,140,0.0,2.0,52,0.00,,,0.00,0,Wunderground v.1.15,2013-03-23 03:10:00,
2013-03-22 20:15:00,56.3,39.4,30.07,SE,140,0.0,2.0,53,0.00,,,0.00,0,Wunderground v.1.15,2013-03-23 03:15:00,
2013-03-22 20:22:00,55.8,39.4,30.08,SE,140,0.0,2.0,54,0.00,,,0.00,0,Wunderground v.1.15,2013-03-23 03:22:00,
2013-03-22 20:28:00,55.2,38.4,30.08,SE,140,0.0,2.0,53,0.00,,,0.00,0,Wunderground v.1.15,2013-03-23 03:28:00,
2013-03-22 20:34:00,54.6,38.7,30.08,SE,140,0.0,2.0,55,0.00,,,0.00,0,Wunderground v.1.15,2013-03-23 03:34:00,
2013-03-22 20:39:00,54.1,38.3,30.08,SE,140,0.0,2.0,55,0.00,,,0.00,0,Wunderground v.1.15,2013-03-23 03:39:00,
2013-03-22 20:45:00,53.6,38.3,30.08,SE,140,0.0,2.0,56,0.00,,,0.00,0,Wunderground v.1.15,2013-03-23 03:45:00,
2013-03-22 20:52:00,53.1,37.8,30.08,SE,140,0.0,2.0,56,0.00,,,0.00,0,Wunderground v.1.15,2013-03-23 03:52:00,
2013-03-22 20:57:00,52.6,39.5,30.09,SE,140,0.0,2.0,61,0.00,,,0.00,0,Wunderground v.1.15,2013-03-23 03:57:00,
2013-03-22 21:00:00,52.4,39.8,30.09,SE,140,0.0,2.0,62,0.00,,,0.00,0,Wunderground v.1.15,2013-03-23 04:00:00,
2013-03-22 21:02:00,52.3,39.7,30.09,SE,140,0.0,2.0,62,0.00,,,0.00,0,Wunderground v.1.15,2013-03-23 04:02:00,
2013-03-22 21:03:00,52.2,39.6,30.09,SE,140,0.0,2.0,62,0.00,,,0.00,0,Wunderground v.1.15,2013-03-23 04:03:00,
2013-03-22 21:08:00,51.8,39.2,30.09,SE,140,0.0,2.0,62,0.00,,,0.00,0,Wunderground v.1.15,2013-03-23 04:08:00,
2013-03-22 21:14:00,51.4,38.8,30.09,SE,140,0.0,2.0,62,0.00,,,0.00,0,Wunderground v.1.15,2013-03-23 04:14:00,
2013-03-22 21:20:00,51.0,38.8,30.09,SE,140,0.0,2.0,63,0.00,,,0.00,0,Wunderground v.1.15,2013-03-23 04:20:00,
2013-03-22 21:26:00,50.6,38.9,30.09,SE,140,0.0,2.0,64,0.00,,,0.00,0,Wunderground v.1.15,2013-03-23 04:26:00,
2013-03-22 21:32:00,50.1,38.8,30.10,SE,140,0.0,2.0,65,0.00,,,0.00,0,Wunderground v.1.15,2013-03-23 04:32:00,
2013-03-22 21:38:00,49.6,38.7,30.09,SE,140,0.0,2.0,66,0.00,,,0.00,0,Wunderground v.1.15,2013-03-23 04:38:00,
2013-03-22 21:44:00,49.2,38.7,30.10,SE,140,0.0,2.0,67,0.00,,,0.00,0,Wunderground v.1.15,2013-03-23 04:44:00,
2013-03-22 21:49:00,48.7,38.2,30.09,SE,140,0.0,2.0,67,0.00,,,0.00,0,Wunderground v.1.15,2013-03-23 04:49:00,
2013-03-22 21:56:00,48.2,38.1,30.09,SE,140,0.0,2.0,68,0.00,,,0.00,0,Wunderground v.1.15,2013-03-23 04:56:00,
2013-03-22 22:02:00,47.8,37.7,30.09,SE,140,0.0,2.0,68,0.00,,,0.00,0,Wunderground v.1.15,2013-03-23 05:02:00,
2013-03-22 22:08:00,47.4,37.4,30.09,SE,140,0.0,2.0,68,0.00,,,0.00,0,Wunderground v.1.15,2013-03-23 05:08:00,
2013-03-22 22:14:00,47.2,37.5,30.09,SE,140,0.0,2.0,69,0.00,,,0.00,0,Wunderground v.1.15,2013-03-23 05:14:00,
2013-03-22 22:20:00,46.9,37.3,30.10,SE,140,0.0,2.0,69,0.00,,,0.00,0,Wunderground v.1.15,2013-03-23 05:20:00,
2013-03-22 22:26:00,46.6,37.0,30.10,SE,140,0.0,2.0,69,0.00,,,0.00,0,Wunderground v.1.15,2013-03-23 05:26:00,
2013-03-22 22:31:00,46.3,36.7,30.09,SE,140,0.0,2.0,69,0.00,,,0.00,0,Wunderground v.1.15,2013-03-23 05:31:00,
2013-03-22 22:38:00,46.0,36.4,30.10,SE,140,0.0,2.0,69,0.00,,,0.00,0,Wunderground v.1.15,2013-03-23 05:38:00,
2013-03-22 22:44:00,45.7,36.5,30.10,SE,140,0.0,2.0,70,0.00,,,0.00,0,Wunderground v.1.15,2013-03-23 05:44:00,
2013-03-22 22:50:00,45.4,36.5,30.10,SE,140,0.0,2.0,71,0.00,,,0.00,0,Wunderground v.1.15,2013-03-23 05:50:00,
2013-03-22 22:56:00,45.1,36.6,30.10,SE,140,0.0,2.0,72,0.00,,,0.00,0,Wunderground v.1.15,2013-03-23 05:56:00,
2013-03-22 23:01:00,44.9,36.4,30.10,SE,140,0.0,3.0,72,0.00,,,0.00,0,Wunderground v.1.15,2013-03-23 06:01:00,
2013-03-22 23:08:00,44.7,36.6,30.11,SE,140,0.0,3.0,73,0.00,,,0.00,0,Wunderground v.1.15,2013-03-23 06:08:00,
2013-03-22 23:14:00,44.5,36.7,30.11,SE,140,0.0,3.0,74,0.00,,,0.00,0,Wunderground v.1.15,2013-03-23 06:14:00,
2013-03-22 23:19:00,44.4,36.6,30.10,SE,140,0.0,3.0,74,0.00,,,0.00,0,Wunderground v.1.15,2013-03-23 06:19:00,
2013-03-22 23:26:00,44.1,36.3,30.10,SE,140,0.0,3.0,74,0.00,,,0.00,0,Wunderground v.1.15,2013-03-23 06:26:00,
2013-03-22 23:31:00,43.8,36.0,30.10,SE,140,0.0,3.0,74,0.00,,,0.00,0,Wunderground v.1.15,2013-03-23 06:31:00,
2013-03-22 23:38:00,43.6,35.9,30.11,SE,140,0.0,3.0,74,0.00,,,0.00,0,Wunderground v.1.15,2013-03-23 06:38:00,
2013-03-22 23:44:00,43.4,36.0,30.11,SE,140,0.0,3.0,75,0.00,,,0.00,0,Wunderground v.1.15,2013-03-23 06:44:00,
2013-03-22 23:50:00,43.1,36.0,30.11,SE,140,0.0,3.0,76,0.00,,,0.00,0,Wunderground v.1.15,2013-03-23 06:50:00,
2013-03-22 23:56:00,42.8,35.8,30.11,SE,140,0.0,3.0,76,0.00,,,0.00,0,Wunderground v.1.15,2013-03-23 06:56:00,